Limerick, Ireland

5:42 AM GMT on February 28, 2017 (GMT +0000)
Shannon | | Change Station

Elev 66 ft 52.70 °N, 8.92 °W | Updated 12 minutes ago

Partly Cloudy
Partly Cloudy
37 °F
Feels Like 30 °F
N
12
Wind Variable Wind from WSW

Today
High -- | Low -- °F
--% Chance of Precip.
Yesterday
High -- | Low -- °F
Precip. -- in
Pressure 29.18 in
Visibility 6.2 miles
Clouds Few 3000 ft
Windchill 30 °F
Dew Point 36 °F
Humidity 93%
Rainfall 0.00 in
Snow Depth Not available.
7:24 AM 6:12 PM
Waxing Crescent, 3% visible
METAR EINN 280530Z 25010KT 9999 FEW030 03/02 Q0988 NOSIG
Pressure 29.18 in
Visibility 6.2 miles
Clouds Few 3000 ft
Windchill 30 °F
Dew Point 36 °F
Humidity 93%
Rainfall 0.00 in
Snow Depth Not available.
7:24 AM 6:12 PM
Waxing Crescent, 3% visible
METAR EINN 280530Z 25010KT 9999 FEW030 03/02 Q0988 NOSIG

Get Your Daily Forecast Email!

Thanks for signing up!

Be on the lookout for a verification email in your inbox.

You'll start receiving the daily forecast at 8 AM.

×

10-Day Weather Forecast

×

Almanac

Astronomy

Feb. 28, 2017 Rise Set
Actual Time
Civil Twilight
Nautical Twilight
Astronomical Twilight
Moon
Length of Visible Light
Length of Day
Tomorrow will be .
, % of the Moon is Illuminated

Today's Extremes

Country Highs Country Lows

Community

WunderPhotos

Upload Photos

1,962,540 photos uploaded!

WunderBlog® & News

Nearby

Air Quality

  Air Quality AQ Index Pollutant
Not available.

Snow Depth

Station Depth Elevation

Earthquake Activity

City Distance Mag. Time & Date
Minimum magnitude displayed is 2.5.

Coastal Water Temperatures

Place Temperature

Stations

Nearby Weather Stations

Station Location Temp. Windchill Dew Point Humidity Wind Precip. Elev Updated Type